Time;durP1;ratioP1;P1;durP2;ratioP2;P2;SDS_P1;SDS_P2;PMS_P1;PMS_P2;Temp;Humidity;BMP_temperature;BMP_pressure;BME280_temperature;BME280_humidity;BME280_pressure;Samples;Min_cycle;Max_cycle;Signal;HPM_P1;HPM_P2
2022/04/02 00:00:28;;;;;;;3.30;2.17;;;;;;;1.06;80.19;101546.84;4992913;28;20268;-42
2022/04/02 00:02:54;;;;;;;4.53;2.53;;;;;;;1.02;79.54;101556.47;4993033;28;20209;-42
2022/04/02 00:05:20;;;;;;;4.43;2.13;;;;;;;1.01;79.40;101548.56;4992994;28;20189;-42
2022/04/02 00:07:45;;;;;;;2.70;1.90;;;;;;;0.98;78.91;101541.50;4992587;28;20807;-45
2022/04/02 00:10:11;;;;;;;2.47;1.90;;;;;;;0.96;78.86;101550.22;4992725;28;20173;-41
2022/04/02 00:12:36;;;;;;;3.90;1.77;;;;;;;0.96;79.02;101552.88;4992944;28;20173;-40
2022/04/02 00:15:02;;;;;;;3.35;2.25;;;;;;;0.97;78.25;101549.38;4993446;28;20201;-43
2022/04/02 00:17:27;;;;;;;3.28;1.77;;;;;;;1.00;78.43;101552.06;4985434;23;20701;-42
2022/04/02 00:19:54;;;;;;;1.80;1.63;;;;;;;1.01;78.04;101545.91;4980671;28;20237;-41
2022/04/02 00:22:19;;;;;;;5.43;2.10;;;;;;;1.01;77.56;101540.66;4972600;28;20194;-42
2022/04/02 00:24:46;;;;;;;5.15;1.75;;;;;;;1.01;78.19;101543.28;4972214;28;20172;-43
2022/04/02 00:27:11;;;;;;;3.40;1.70;;;;;;;1.06;77.87;101538.94;4952766;29;20630;-41
2022/04/02 00:29:38;;;;;;;2.08;1.70;;;;;;;1.06;76.82;101538.94;4952094;29;20181;-40
2022/04/02 00:32:05;;;;;;;4.07;1.75;;;;;;;1.10;75.94;101524.91;4952495;29;20171;-42
2022/04/02 00:34:30;;;;;;;2.38;1.40;;;;;;;1.11;75.78;101534.59;4953161;28;20386;-44
2022/04/02 00:36:56;;;;;;;2.40;1.85;;;;;;;1.13;74.87;101527.56;4953525;28;20195;-44
2022/04/02 00:39:23;;;;;;;3.55;1.92;;;;;;;1.15;75.35;101543.44;4952368;29;20191;-44
2022/04/02 00:41:48;;;;;;;1.98;1.60;;;;;;;1.06;74.97;101536.28;4953191;28;20163;-44
2022/04/02 00:44:17;;;;;;;2.88;1.73;;;;;;;1.04;74.83;101538.03;4953307;29;20214;-44
2022/04/02 00:46:43;;;;;;;1.90;1.70;;;;;;;0.99;74.37;101539.75;4953232;28;20191;-45
2022/04/02 00:49:11;;;;;;;1.80;1.40;;;;;;;1.00;73.59;101530.94;4935976;29;20167;-45
2022/04/02 00:51:42;;;;;;;1.88;1.52;;;;;;;0.95;73.89;101537.91;4953572;28;20175;-42
2022/04/02 00:54:14;;;;;;;3.33;1.40;;;;;;;0.96;73.67;101543.22;4952935;29;20162;-43
2022/04/02 00:56:40;;;;;;;4.05;1.70;;;;;;;0.89;73.41;101537.84;4953403;28;20206;-41
2022/04/02 00:59:08;;;;;;;3.35;1.50;;;;;;;0.86;73.63;101540.44;4953257;28;20622;-42
2022/04/02 01:01:35;;;;;;;4.63;1.63;;;;;;;0.77;73.67;101546.50;4951727;29;20186;-43
2022/04/02 01:04:02;;;;;;;3.30;1.50;;;;;;;0.74;73.79;101554.34;4951984;29;20729;-43
2022/04/02 01:06:33;;;;;;;2.03;1.65;;;;;;;0.72;74.25;101553.44;4952984;28;20681;-40
2022/04/02 01:09:00;;;;;;;3.70;1.83;;;;;;;0.65;74.18;101544.56;4953231;28;20634;-42
2022/04/02 01:11:41;;;;;;;2.05;1.80;;;;;;;0.63;74.37;101553.31;4951516;29;20186;-44
2022/04/02 01:14:07;;;;;;;3.83;1.80;;;;;;;0.57;74.49;101557.66;4951621;29;20207;-42
2022/04/02 01:16:34;;;;;;;2.97;1.45;;;;;;;0.54;74.96;101554.94;4951651;28;20234;-44
2022/04/02 01:19:05;;;;;;;2.67;1.70;;;;;;;0.50;75.39;101561.03;4951194;29;20183;-44
2022/04/02 01:21:32;;;;;;;4.07;1.90;;;;;;;0.44;75.73;101557.41;4951313;29;20218;-42
2022/04/02 01:24:04;;;;;;;2.95;1.80;;;;;;;0.43;76.03;101555.66;4951399;29;20202;-43
2022/04/02 01:26:33;;;;;;;4.57;1.65;;;;;;;0.38;76.42;101559.09;4948023;28;20206;-39
2022/04/02 01:29:11;;;;;;;3.45;1.92;;;;;;;0.35;76.76;101559.06;4893826;28;20166;-42
2022/04/02 01:31:44;;;;;;;3.95;2.03;;;;;;;0.39;77.09;101563.53;4950813;29;20613;-44
2022/04/02 01:34:10;;;;;;;2.92;2.10;;;;;;;0.30;76.93;101557.22;4950778;29;20265;-47
2022/04/02 01:36:38;;;;;;;3.00;1.90;;;;;;;0.24;77.72;101560.66;4950411;28;20310;-44
2022/04/02 01:39:16;;;;;;;1.70;1.60;;;;;;;0.28;77.66;101562.44;4936778;29;20638;-42
2022/04/02 01:41:44;;;;;;;4.70;1.70;;;;;;;0.21;77.32;101557.97;4950610;29;20167;-41
2022/04/02 01:44:12;;;;;;;1.92;1.48;;;;;;;0.20;77.87;101551.81;4950980;29;20233;-42
2022/04/02 01:46:37;;;;;;;2.30;1.63;;;;;;;0.17;77.99;101558.78;4947289;28;20186;-44
2022/04/02 01:49:03;;;;;;;2.88;1.98;;;;;;;0.11;78.42;101564.84;4957438;28;20186;-42
2022/04/02 01:51:29;;;;;;;2.33;1.70;;;;;;;-0.01;78.27;101554.09;4966838;28;20261;-43
2022/04/02 01:53:54;;;;;;;3.22;1.80;;;;;;;0.01;79.05;101560.28;4969460;28;20261;-43
2022/04/02 01:56:21;;;;;;;2.65;1.90;;;;;;;-0.04;78.53;101551.41;4969965;28;20308;-43
2022/04/02 01:58:51;;;;;;;3.95;1.92;;;;;;;0.03;77.89;101561.19;4969858;28;20685;-43
2022/04/02 02:01:21;;;;;;;3.13;1.75;;;;;;;0.04;77.95;101562.06;4969368;28;20178;-43
2022/04/02 02:03:47;;;;;;;3.50;1.83;;;;;;;0.00;77.68;101553.25;4986241;28;20206;-43
2022/04/02 02:06:12;;;;;;;4.38;1.88;;;;;;;-0.07;77.50;101560.13;4970743;28;20669;-43
2022/04/02 02:08:42;;;;;;;2.25;1.70;;;;;;;-0.09;78.50;101553.97;4969340;28;20178;-44
2022/04/02 02:11:31;;;;;;;2.97;1.58;;;;;;;-0.15;77.90;101553.88;4934040;28;20217;-43
2022/04/02 02:14:09;;;;;;;4.45;1.92;;;;;;;-0.24;78.57;101558.94;4969693;28;20170;-42
2022/04/02 02:16:38;;;;;;;3.08;1.90;;;;;;;-0.30;78.75;101559.75;4974466;28;20206;-43
2022/04/02 02:19:03;;;;;;;2.28;1.60;;;;;;;-0.41;78.47;101558.66;4950170;29;20294;-42
2022/04/02 02:21:29;;;;;;;2.22;1.73;;;;;;;-0.40;79.23;101562.19;4951599;29;20562;-44
2022/04/02 02:23:56;;;;;;;2.13;1.92;;;;;;;-0.41;79.40;101556.03;4951554;29;20210;-43
2022/04/02 02:26:22;;;;;;;2.20;1.75;;;;;;;-0.49;79.88;101561.13;4951837;28;20273;-43
2022/04/02 02:28:48;;;;;;;2.72;1.63;;;;;;;-0.43;80.00;101557.75;4950084;29;20728;-42
2022/04/02 02:31:23;;;;;;;2.80;1.70;;;;;;;-0.49;79.43;101562.91;4950231;29;20672;-43
2022/04/02 02:36:33;;;;;;;3.47;1.70;;;;;;;-0.50;80.54;101563.75;4949890;28;20234;-45
2022/04/02 02:39:08;;;;;;;2.25;1.70;;;;;;;-0.51;80.49;101564.59;4950578;29;20166;-43
2022/04/02 02:41:38;;;;;;;2.72;2.38;;;;;;;-0.43;81.04;101557.75;4949769;29;20258;-42
2022/04/02 02:44:08;;;;;;;3.30;2.20;;;;;;;-0.38;81.14;101561.34;4950300;29;20253;-43
2022/04/02 02:46:39;;;;;;;4.45;1.92;;;;;;;-0.33;80.65;101556.16;4950279;28;20195;-44
2022/04/02 02:49:23;;;;;;;5.30;2.28;;;;;;;-0.26;80.51;101564.22;4950122;29;20178;-42
2022/04/02 02:51:49;;;;;;;4.65;2.38;;;;;;;-0.28;81.07;101563.28;4950024;29;20179;-43
2022/04/02 02:54:20;;;;;;;2.95;2.33;;;;;;;-0.25;80.83;101557.19;4950308;29;20202;-46
2022/04/02 02:56:46;;;;;;;2.75;1.95;;;;;;;-0.15;81.47;101564.41;4950984;28;20242;-43
2022/04/02 02:59:12;;;;;;;3.35;2.03;;;;;;;-0.14;80.51;101566.16;4954313;28;20526;-46
2022/04/02 03:01:38;;;;;;;3.00;2.67;;;;;;;-0.16;80.69;101565.25;4953558;29;20174;-47
2022/04/02 03:04:04;;;;;;;4.95;2.47;;;;;;;-0.15;80.81;101553.88;4953490;29;20633;-43
2022/04/02 03:06:32;;;;;;;2.55;2.35;;;;;;;-0.08;80.45;101568.03;4953557;28;20195;-44
2022/04/02 03:08:58;;;;;;;4.40;2.28;;;;;;;-0.18;80.45;101569.59;4953498;29;20167;-43
2022/04/02 03:11:24;;;;;;;3.28;2.55;;;;;;;-0.12;80.72;101560.94;4954383;28;20657;-42
2022/04/02 03:13:52;;;;;;;4.80;2.42;;;;;;;-0.11;81.17;101565.31;4953582;29;20203;-44
2022/04/02 03:16:18;;;;;;;5.15;2.28;;;;;;;-0.10;80.70;101569.75;4952909;28;20257;-42
2022/04/02 03:18:51;;;;;;;3.90;2.38;;;;;;;-0.17;80.90;101568.75;4952990;29;20176;-43
2022/04/02 03:21:19;;;;;;;2.50;2.15;;;;;;;-0.14;80.53;101579.31;4953328;29;20178;-41
2022/04/02 03:23:45;;;;;;;4.38;2.38;;;;;;;-0.18;80.61;101580.13;4954323;29;20206;-42
2022/04/02 03:26:15;;;;;;;3.03;2.22;;;;;;;-0.27;81.01;101575.59;4954705;28;20202;-41
2022/04/02 03:28:41;;;;;;;3.38;2.78;;;;;;;-0.37;81.30;101581.56;4952795;29;20712;-44
2022/04/02 03:31:07;;;;;;;4.15;2.50;;;;;;;-0.36;81.15;101585.94;4953026;29;20201;-44
2022/04/02 03:33:36;;;;;;;3.30;2.28;;;;;;;-0.35;81.57;101586.84;4953199;29;20174;-42
2022/04/02 03:36:04;;;;;;;4.78;2.60;;;;;;;-0.42;81.25;101585.84;4952945;28;20195;-47
2022/04/02 03:38:29;;;;;;;4.85;2.53;;;;;;;-0.42;81.46;101580.56;4952874;29;20182;-45
2022/04/02 03:40:59;;;;;;;2.97;2.40;;;;;;;-0.27;80.55;101590.50;4952444;29;20254;-44
2022/04/02 03:43:24;;;;;;;4.68;2.70;;;;;;;-0.30;80.19;101591.34;4952690;29;20628;-42
2022/04/02 03:45:50;;;;;;;3.15;2.30;;;;;;;-0.22;79.83;101596.72;4954308;28;20205;-44
2022/04/02 03:48:16;;;;;;;3.33;2.00;;;;;;;-0.20;79.57;101602.91;4957102;28;20191;-47
2022/04/02 03:50:44;;;;;;;3.80;2.10;;;;;;;-0.21;79.22;101582.72;4970400;28;20680;-42
2022/04/02 03:53:17;;;;;;;4.13;2.15;;;;;;;-0.25;79.26;101599.31;4972141;28;20652;-44
2022/04/02 03:55:53;;;;;;;3.85;2.20;;;;;;;-0.31;79.66;101594.81;4962127;28;20296;-42
2022/04/02 03:58:31;;;;;;;5.85;2.40;;;;;;;-0.28;79.62;101599.28;4963476;28;20181;-43
2022/04/02 04:00:57;;;;;;;4.97;2.40;;;;;;;-0.28;79.62;101600.16;4973130;28;20554;-42
2022/04/02 04:03:23;;;;;;;4.80;2.20;;;;;;;-0.25;79.73;101594.94;4973485;28;20672;-42
2022/04/02 04:05:52;;;;;;;3.15;2.17;;;;;;;-0.37;79.71;101593.81;4971852;28;20201;-44
2022/04/02 04:08:19;;;;;;;2.22;2.03;;;;;;;-0.40;79.73;101602.53;4970564;28;20261;-44
2022/04/02 04:10:45;;;;;;;4.97;2.13;;;;;;;-0.30;80.28;101603.63;4971339;28;20253;-43
2022/04/02 04:13:13;;;;;;;4.05;2.28;;;;;;;-0.41;79.92;101598.16;4972001;28;20166;-43
2022/04/02 04:15:40;;;;;;;2.92;1.90;;;;;;;-0.34;79.84;101604.41;4971808;28;20202;-43
2022/04/02 04:18:07;;;;;;;5.25;1.95;;;;;;;-0.38;80.31;101602.59;4971552;28;20178;-42
2022/04/02 04:20:34;;;;;;;3.75;2.30;;;;;;;-0.36;80.34;101608.78;4971158;28;20170;-41
2022/04/02 04:23:02;;;;;;;2.13;1.92;;;;;;;-0.35;79.56;101611.44;4971307;28;20229;-45
2022/04/02 04:25:29;;;;;;;5.95;2.17;;;;;;;-0.39;79.52;101625.41;4971201;28;20197;-45
2022/04/02 04:27:57;;;;;;;4.15;2.15;;;;;;;-0.39;79.11;101616.59;4972787;28;20173;-44
2022/04/02 04:30:23;;;;;;;2.92;1.85;;;;;;;-0.37;78.94;101615.78;4972123;28;20166;-43
2022/04/02 04:32:49;;;;;;;3.35;2.00;;;;;;;-0.17;77.71;101621.41;4973082;28;20221;-43
2022/04/02 04:35:14;;;;;;;1.77;1.50;;;;;;;-0.22;77.22;101615.16;4972460;28;20579;-44
2022/04/02 04:37:39;;;;;;;2.97;1.73;;;;;;;-0.14;76.73;101623.22;4972532;28;20181;-45
2022/04/02 04:40:13;;;;;;;5.22;1.85;;;;;;;-0.20;76.48;101631.88;4970422;28;20185;-46
2022/04/02 04:42:41;;;;;;;4.07;1.90;;;;;;;-0.21;76.34;101620.47;4971157;28;20708;-46
2022/04/02 04:45:09;;;;;;;1.90;1.70;;;;;;;-0.20;76.47;101629.25;4971335;28;20194;-46
2022/04/02 04:47:36;;;;;;;3.53;1.40;;;;;;;-0.15;75.42;101627.59;4986745;28;20185;-47
2022/04/02 04:50:03;;;;;;;3.78;1.70;;;;;;;-0.14;75.12;101628.50;4970602;28;20185;-43
2022/04/02 04:52:31;;;;;;;1.50;1.40;;;;;;;-0.16;74.54;101643.38;4970660;28;20789;-42
2022/04/02 04:55:01;;;;;;;2.47;1.33;;;;;;;-0.15;74.61;101637.22;4970560;28;20181;-43
2022/04/02 04:57:30;;;;;;;2.20;1.90;;;;;;;-0.12;74.53;101642.56;4970613;28;20947;-45
2022/04/02 05:00:05;;;;;;;1.70;1.60;;;;;;;-0.23;74.85;101648.53;5002562;28;20178;-46
2022/04/02 05:02:31;;;;;;;2.72;1.70;;;;;;;-0.14;74.13;101647.81;4971585;28;20383;-42
2022/04/02 05:04:59;;;;;;;2.88;1.60;;;;;;;-0.13;74.17;101648.69;4970523;28;20189;-42
2022/04/02 05:07:25;;;;;;;1.63;1.52;;;;;;;-0.08;73.68;101647.03;4970283;28;20630;-42
2022/04/02 05:09:55;;;;;;;3.20;1.85;;;;;;;-0.17;73.95;101655.66;4969919;28;20265;-47
2022/04/02 05:12:20;;;;;;;2.17;1.60;;;;;;;-0.17;73.85;101660.94;4970297;28;20657;-44
2022/04/02 05:14:49;;;;;;;2.97;1.55;;;;;;;-0.16;74.00;101667.94;4970119;28;20197;-43
2022/04/02 05:17:17;;;;;;;1.98;1.40;;;;;;;-0.15;73.42;101659.22;4970314;28;20194;-42
2022/04/02 05:19:45;;;;;;;2.42;1.40;;;;;;;-0.06;73.86;101664.66;4970300;28;20235;-46
2022/04/02 05:22:11;;;;;;;3.78;1.50;;;;;;;-0.01;73.80;101660.34;4969607;28;20567;-46
2022/04/02 05:24:44;;;;;;;1.90;1.30;;;;;;;0.06;73.91;101676.28;4985829;28;20178;-41
2022/04/02 05:27:09;;;;;;;1.67;1.58;;;;;;;0.11;73.82;101671.97;4970089;28;20193;-45
2022/04/02 05:29:35;;;;;;;2.90;1.73;;;;;;;0.18;73.66;101674.75;5002561;28;20178;-42
2022/04/02 05:32:02;;;;;;;1.77;1.65;;;;;;;0.27;74.33;101673.16;4969896;28;20315;-41
2022/04/02 05:34:28;;;;;;;6.15;2.00;;;;;;;0.39;74.15;101665.44;4971506;28;20202;-44
2022/04/02 05:36:53;;;;;;;2.15;1.70;;;;;;;0.47;73.51;101673.47;4970028;28;20236;-46
2022/04/02 05:39:19;;;;;;;2.83;1.45;;;;;;;0.56;73.79;101679.78;5001950;28;20177;-43
2022/04/02 05:41:46;;;;;;;1.80;1.70;;;;;;;0.76;73.28;101674.81;4970583;28;20210;-42
2022/04/02 05:44:11;;;;;;;2.28;1.60;;;;;;;0.99;71.79;101679.59;4971122;28;20770;-43
2022/04/02 05:46:37;;;;;;;1.90;1.50;;;;;;;1.07;71.51;101671.75;4970299;28;20194;-42
2022/04/02 05:49:03;;;;;;;3.30;1.77;;;;;;;1.32;70.98;101686.19;4967764;28;20187;-44
2022/04/02 05:51:29;;;;;;;1.75;1.50;;;;;;;1.59;70.63;101678.63;4952344;28;20163;-43
2022/04/02 05:53:54;;;;;;;2.42;1.60;;;;;;;1.60;70.30;101690.97;4952399;29;20167;-44
2022/04/02 05:56:22;;;;;;;3.25;2.00;;;;;;;1.84;70.08;101695.66;4951183;28;20202;-43
2022/04/02 05:58:47;;;;;;;2.08;1.75;;;;;;;2.06;69.69;101702.06;4950156;29;20190;-42
2022/04/02 06:01:14;;;;;;;1.95;1.67;;;;;;;2.15;68.63;101692.47;4949734;28;20191;-42
2022/04/02 06:03:41;;;;;;;3.95;1.92;;;;;;;2.27;68.36;101697.84;4949347;28;20219;-42
2022/04/02 06:06:07;;;;;;;2.22;2.03;;;;;;;2.32;68.04;101703.19;4948452;28;20608;-44
2022/04/02 06:08:33;;;;;;;2.05;1.80;;;;;;;2.42;67.20;101705.94;4949510;29;20174;-46
2022/04/02 06:10:58;;;;;;;2.42;2.13;;;;;;;2.39;66.28;101713.84;4951351;28;20177;-42
2022/04/02 06:13:24;;;;;;;2.15;1.73;;;;;;;2.50;66.17;101715.72;4962064;28;20781;-45
2022/04/02 06:15:49;;;;;;;2.10;1.33;;;;;;;2.77;65.73;101710.66;4950191;28;20206;-43
2022/04/02 06:18:18;;;;;;;5.97;2.35;;;;;;;3.01;65.12;101709.06;4968536;28;20163;-48
2022/04/02 06:20:48;;;;;;;2.20;1.48;;;;;;;3.12;64.15;101715.31;4969949;28;20186;-45
2022/04/02 06:23:14;;;;;;;4.05;1.83;;;;;;;3.19;63.34;101719.81;4969089;28;20204;-45
2022/04/02 06:25:40;;;;;;;2.30;1.70;;;;;;;3.32;62.96;101720.75;4971017;28;20410;-45
2022/04/02 06:28:06;;;;;;;3.20;1.90;;;;;;;3.24;63.14;101728.66;4971564;28;20185;-44
2022/04/02 06:30:32;;;;;;;2.83;2.38;;;;;;;3.51;62.31;101732.34;4980947;28;20170;-44
2022/04/02 06:32:57;;;;;;;3.55;2.45;;;;;;;3.44;61.52;101735.84;4973707;28;20177;-46
2022/04/02 06:35:23;;;;;;;2.17;1.65;;;;;;;3.79;61.60;101727.19;4974243;28;20277;-45
2022/04/02 06:37:50;;;;;;;2.15;1.35;;;;;;;3.88;61.24;101730.75;4964041;28;20175;-44
2022/04/02 06:40:16;;;;;;;3.17;1.35;;;;;;;3.77;60.97;101735.13;4954687;28;20163;-46
2022/04/02 06:42:42;;;;;;;3.88;1.67;;;;;;;3.94;60.19;101729.88;4952951;28;20281;-46
2022/04/02 06:45:15;;;;;;;5.28;1.42;;;;;;;3.83;59.78;101745.75;4954050;28;20195;-42
2022/04/02 06:47:41;;;;;;;3.13;1.83;;;;;;;3.59;59.48;101740.34;4952397;29;20639;-43
2022/04/02 06:50:13;;;;;;;2.97;1.27;;;;;;;3.38;60.15;101749.03;4954759;28;20216;-43
2022/04/02 06:52:40;;;;;;;3.22;1.30;;;;;;;3.62;58.85;101745.66;4960540;28;20167;-44
2022/04/02 06:55:08;;;;;;;3.45;1.50;;;;;;;3.66;58.04;101744.78;4971905;28;20696;-43
2022/04/02 06:57:40;;;;;;;2.03;1.30;;;;;;;4.04;58.14;101746.69;4971681;28;20823;-44
2022/04/02 07:00:06;;;;;;;1.92;1.20;;;;;;;3.63;56.59;101755.34;5003900;28;20178;-45
2022/04/02 07:02:31;;;;;;;3.00;1.50;;;;;;;3.32;56.32;101751.66;4972563;28;20214;-44
2022/04/02 07:04:57;;;;;;;1.52;1.20;;;;;;;3.48;55.36;101759.72;4967501;28;20280;-47
2022/04/02 07:07:23;;;;;;;3.97;1.30;;;;;;;3.22;56.07;101748.94;4972891;28;20167;-48
2022/04/02 07:09:48;;;;;;;2.35;1.48;;;;;;;3.95;55.03;101749.31;4974567;28;20668;-41
2022/04/02 07:12:13;;;;;;;4.32;1.60;;;;;;;3.58;54.68;101752.69;4974737;28;20204;-44
2022/04/02 07:14:39;;;;;;;0.85;0.85;;;;;;;3.85;53.72;101757.25;4974640;28;20633;-45
2022/04/02 07:17:04;;;;;;;1.17;0.98;;;;;;;4.29;51.95;101763.59;4974123;28;20206;-43
2022/04/02 07:19:32;;;;;;;1.33;1.17;;;;;;;4.16;51.83;101756.47;4973873;28;20313;-44
2022/04/02 07:21:59;;;;;;;2.20;1.10;;;;;;;3.67;52.31;101767.75;4973544;28;20548;-46
2022/04/02 07:24:25;;;;;;;1.05;0.93;;;;;;;3.60;53.14;101761.53;4973811;28;20204;-42
2022/04/02 07:26:53;;;;;;;1.95;0.85;;;;;;;3.39;53.75;101772.00;4973961;28;20204;-46
2022/04/02 07:29:19;;;;;;;1.70;0.80;;;;;;;3.17;53.06;101771.88;4974172;28;20301;-43
2022/04/02 07:31:44;;;;;;;1.40;1.00;;;;;;;3.57;52.67;101771.25;4972015;28;20549;-44
2022/04/02 07:34:11;;;;;;;3.40;0.95;;;;;;;3.59;52.90;101770.38;5005211;28;20171;-44
2022/04/02 07:36:40;;;;;;;1.30;0.80;;;;;;;3.36;52.78;101771.97;4973182;28;20241;-44
2022/04/02 07:39:16;;;;;;;0.85;0.82;;;;;;;3.63;52.14;101777.47;4971313;28;20177;-42
2022/04/02 07:42:03;;;;;;;3.70;1.00;;;;;;;3.45;51.95;101774.69;4968338;28;20193;-43
2022/04/02 07:44:52;;;;;;;1.73;1.00;;;;;;;3.81;52.47;101774.00;4959040;28;20664;-43
2022/04/02 07:47:28;;;;;;;1.45;1.00;;;;;;;3.22;52.85;101785.13;4953898;29;20174;-47
2022/04/02 07:50:00;;;;;;;2.22;0.93;;;;;;;3.28;52.84;101778.13;4953484;29;20182;-42
2022/04/02 07:52:27;;;;;;;1.67;0.90;;;;;;;3.60;52.97;101780.06;4952676;29;20198;-47
2022/04/02 07:54:56;;;;;;;0.80;0.80;;;;;;;3.66;52.75;101788.06;4954198;28;20182;-48
2022/04/02 07:57:42;;;;;;;3.42;0.90;;;;;;;3.38;53.77;101786.13;4954622;29;20210;-43
2022/04/02 08:00:10;;;;;;;1.10;0.95;;;;;;;4.01;53.37;101766.13;4953947;28;20182;-44
2022/04/02 08:02:42;;;;;;;1.38;0.88;;;;;;;3.72;53.10;101782.81;4953237;28;20183;-46
2022/04/02 08:05:12;;;;;;;1.02;0.90;;;;;;;3.47;53.52;101791.47;4952632;28;20199;-42
2022/04/02 08:07:39;;;;;;;4.00;1.02;;;;;;;3.62;53.63;101804.81;4953631;28;20549;-44
2022/04/02 08:10:10;;;;;;;1.52;0.77;;;;;;;4.16;54.15;101799.78;4952247;28;20178;-44
2022/04/02 08:12:41;;;;;;;1.73;0.80;;;;;;;3.46;54.27;101809.16;4952010;29;20177;-43
2022/04/02 08:15:12;;;;;;;2.80;0.85;;;;;;;3.48;53.83;101807.38;4953779;28;20939;-44
2022/04/02 08:17:39;;;;;;;1.70;0.90;;;;;;;3.73;54.16;101802.22;4953798;28;20240;-43
2022/04/02 08:20:05;;;;;;;1.73;0.90;;;;;;;4.32;53.28;101798.94;4952951;29;20237;-41
2022/04/02 08:22:31;;;;;;;0.85;0.70;;;;;;;3.33;54.09;101823.19;4960462;28;20229;-41
2022/04/02 08:24:58;;;;;;;2.38;0.90;;;;;;;3.36;54.76;101817.00;4951418;28;20634;-42
2022/04/02 08:27:45;;;;;;;2.92;1.10;;;;;;;3.14;55.06;101819.50;4953355;28;20182;-45
2022/04/02 08:30:17;;;;;;;1.58;1.05;;;;;;;3.50;54.32;101805.66;4952928;29;20187;-44
2022/04/02 08:33:13;;;;;;;1.25;0.93;;;;;;;3.45;53.99;101811.78;4952202;28;20166;-45
2022/04/02 08:35:49;;;;;;;1.42;0.90;;;;;;;3.56;53.49;101812.72;4962164;28;20660;-44
2022/04/02 08:38:19;;;;;;;1.88;1.00;;;;;;;3.55;53.96;101818.03;4972152;28;20594;-43
2022/04/02 08:41:06;;;;;;;2.00;0.82;;;;;;;3.74;54.39;101813.72;4971355;28;20178;-43
2022/04/02 08:43:56;;;;;;;1.35;0.80;;;;;;;3.56;55.60;101820.69;4951606;29;20762;-44
2022/04/02 08:46:40;;;;;;;0.98;0.88;;;;;;;3.06;55.15;101831.75;4950586;28;20265;-46
2022/04/02 08:49:23;;;;;;;1.80;1.00;;;;;;;3.76;54.84;101825.22;4950830;28;20181;-45
2022/04/02 08:52:14;;;;;;;1.85;1.10;;;;;;;3.80;54.76;101834.97;4951536;28;20196;-45
2022/04/02 08:54:46;;;;;;;1.52;1.00;;;;;;;3.60;53.42;101837.50;4951644;28;20210;-41
2022/04/02 08:57:27;;;;;;;1.35;1.10;;;;;;;3.84;53.69;101837.63;4971122;28;20212;-44
2022/04/02 09:00:13;;;;;;;1.60;1.10;;;;;;;3.68;54.73;101844.63;4964011;28;20182;-44
2022/04/02 09:03:08;;;;;;;2.67;1.10;;;;;;;4.06;54.27;101856.31;4952589;29;20230;-49
2022/04/02 09:05:54;;;;;;;2.45;0.98;;;;;;;3.89;53.21;101848.25;4948621;28;20190;-46
2022/04/02 09:08:50;;;;;;;2.15;1.20;;;;;;;4.11;54.63;101852.81;4952386;28;20226;-43
2022/04/02 09:11:34;;;;;;;1.50;1.08;;;;;;;4.52;52.78;101849.44;4952810;28;20194;-42
2022/04/02 09:14:18;;;;;;;1.13;0.85;;;;;;;4.35;50.16;101853.78;4952699;28;20185;-42
2022/04/02 09:17:00;;;;;;;0.95;0.88;;;;;;;4.34;48.86;101854.69;4950667;28;20688;-45
2022/04/02 09:19:35;;;;;;;1.20;1.10;;;;;;;4.17;48.56;101845.75;4952409;28;20187;-44
2022/04/02 09:22:07;;;;;;;1.85;0.98;;;;;;;4.34;49.00;101854.69;4953184;28;20224;-41
2022/04/02 09:24:54;;;;;;;1.58;1.13;;;;;;;3.97;49.41;101856.28;4953958;28;20226;-42
2022/04/02 09:27:57;;;;;;;1.05;0.88;;;;;;;3.95;48.37;101850.97;4952933;28;20190;-42
2022/04/02 09:30:50;;;;;;;1.08;0.90;;;;;;;3.69;49.87;101861.41;4951953;29;20171;-43
2022/04/02 09:33:24;;;;;;;2.83;1.17;;;;;;;3.66;51.81;101853.44;4952132;29;20202;-45
2022/04/02 09:36:07;;;;;;;2.45;1.30;;;;;;;4.37;51.87;101851.16;4951344;28;20213;-44
2022/04/02 09:38:43;;;;;;;1.20;1.08;;;;;;;4.56;50.72;101865.38;4952212;28;20190;-45
2022/04/02 09:41:30;;;;;;;1.40;1.00;;;;;;;4.13;51.93;101863.41;4952261;28;20179;-44
2022/04/02 09:44:08;;;;;;;2.03;1.05;;;;;;;4.68;50.48;101873.34;4952070;28;20502;-44
2022/04/02 09:46:53;;;;;;;1.40;1.00;;;;;;;4.25;50.93;101870.56;4952329;28;20194;-45
2022/04/02 09:49:30;;;;;;;1.27;1.00;;;;;;;4.22;50.81;101867.88;4951871;29;20638;-44
2022/04/02 09:52:04;;;;;;;0.90;0.90;;;;;;;4.28;52.16;101866.13;4951838;28;20680;-47
2022/04/02 09:54:36;;;;;;;1.25;1.00;;;;;;;3.70;53.20;101861.41;4951943;28;20170;-45
2022/04/02 09:57:14;;;;;;;0.90;0.90;;;;;;;4.37;52.99;101875.03;4951795;28;20198;-44
2022/04/02 10:00:20;;;;;;;3.15;1.10;;;;;;;4.07;52.83;101861.63;4951836;28;20171;-45
2022/04/02 10:03:23;;;;;;;3.53;1.10;;;;;;;4.00;52.80;101859.84;4892037;29;20220;-45
2022/04/02 10:06:11;;;;;;;1.17;0.95;;;;;;;4.27;52.03;101867.03;4951725;28;20224;-45
2022/04/02 10:08:50;;;;;;;1.95;1.02;;;;;;;4.16;51.54;101866.09;4954725;28;20221;-46
2022/04/02 10:11:19;;;;;;;2.05;1.20;;;;;;;4.20;51.66;101865.25;4955671;28;20194;-46
2022/04/02 10:13:44;;;;;;;1.92;1.10;;;;;;;4.20;51.58;101870.56;4955359;28;20589;-47
2022/04/02 10:16:12;;;;;;;1.48;1.02;;;;;;;3.85;50.44;101855.34;4955568;28;20232;-44
2022/04/02 10:18:39;;;;;;;3.70;1.02;;;;;;;4.49;51.46;101852.09;4955457;28;20199;-47
2022/04/02 10:21:05;;;;;;;0.90;0.90;;;;;;;4.80;51.75;101852.16;4954923;28;20171;-46
2022/04/02 10:23:36;;;;;;;1.88;0.90;;;;;;;5.00;51.72;101840.69;4954126;29;20654;-45
2022/04/02 10:26:18;;;;;;;1.13;0.85;;;;;;;5.12;50.25;101843.38;4955428;28;20210;-47
2022/04/02 10:28:54;;;;;;;1.98;1.13;;;;;;;4.48;52.33;101863.59;4953826;29;20182;-46
2022/04/02 10:31:42;;;;;;;2.13;1.08;;;;;;;4.11;54.18;101852.81;4953650;29;20190;-49
2022/04/02 10:34:38;;;;;;;2.30;1.02;;;;;;;4.59;51.17;101855.66;4954609;28;20545;-47
2022/04/02 10:37:14;;;;;;;3.78;1.10;;;;;;;4.23;50.87;101867.03;4955384;28;20191;-47
2022/04/02 10:40:06;;;;;;;2.25;1.27;;;;;;;4.18;50.27;101859.03;4953528;29;20221;-48
2022/04/02 10:42:34;;;;;;;2.38;1.20;;;;;;;4.16;50.91;101865.22;4954664;28;20654;-49
2022/04/02 10:45:04;;;;;;;2.35;0.90;;;;;;;4.04;50.12;101860.72;4954774;28;20374;-46
2022/04/02 10:47:30;;;;;;;0.98;0.90;;;;;;;4.07;49.97;101866.94;4955052;28;20604;-47
2022/04/02 10:50:07;;;;;;;2.05;0.95;;;;;;;3.98;48.82;101866.00;4954954;28;20181;-47
2022/04/02 10:52:34;;;;;;;1.42;1.02;;;;;;;3.89;47.93;101859.78;4954486;28;20171;-47
2022/04/02 10:55:00;;;;;;;2.33;0.95;;;;;;;4.06;48.77;101859.84;4955121;28;20175;-46
2022/04/02 10:57:28;;;;;;;1.02;0.90;;;;;;;4.16;49.61;101860.81;4955000;28;20266;-48
2022/04/02 11:00:04;;;;;;;1.30;1.15;;;;;;;3.89;49.78;101875.69;4954772;28;20183;-46
2022/04/02 11:02:39;;;;;;;1.23;0.90;;;;;;;4.09;47.92;101862.53;4954701;28;20202;-47
2022/04/02 11:05:07;;;;;;;1.33;0.80;;;;;;;4.52;48.42;101857.38;4954143;28;20182;-47
2022/04/02 11:07:42;;;;;;;1.15;0.90;;;;;;;4.42;49.29;101850.31;4953692;29;20178;-48
2022/04/02 11:10:11;;;;;;;2.10;1.10;;;;;;;4.65;48.58;101863.63;4969512;28;20189;-47
2022/04/02 11:12:44;;;;;;;1.92;1.00;;;;;;;4.36;48.70;101862.66;4954214;28;20178;-47
2022/04/02 11:15:23;;;;;;;1.60;0.93;;;;;;;4.11;48.59;101863.44;4954678;28;20258;-47
2022/04/02 11:17:59;;;;;;;1.17;0.90;;;;;;;4.04;47.66;101852.78;4954404;28;20190;-47
2022/04/02 11:20:32;;;;;;;2.85;1.00;;;;;;;3.91;47.96;101852.72;4969482;28;20179;-47
2022/04/02 11:23:10;;;;;;;0.82;0.82;;;;;;;4.25;49.57;101846.69;4954036;28;20278;-46
2022/04/02 11:25:36;;;;;;;1.10;0.90;;;;;;;4.16;47.02;101844.00;4937355;29;20284;-47
2022/04/02 11:28:05;;;;;;;1.40;1.08;;;;;;;4.47;47.95;101851.19;4954463;28;20194;-45
2022/04/02 11:30:41;;;;;;;1.50;1.15;;;;;;;3.90;45.54;101847.41;4954479;28;20184;-47
2022/04/02 11:33:48;;;;;;;1.10;1.00;;;;;;;4.28;47.47;101852.88;4954523;28;20257;-47
2022/04/02 11:36:15;;;;;;;1.25;1.10;;;;;;;3.99;48.74;101855.41;4954004;28;20214;-47
2022/04/02 11:39:10;;;;;;;2.20;1.00;;;;;;;3.95;47.69;101850.06;4954372;28;20178;-48
2022/04/02 11:41:42;;;;;;;1.33;1.23;;;;;;;4.13;48.45;101852.81;4954016;28;20179;-45
2022/04/02 11:44:16;;;;;;;1.35;1.25;;;;;;;4.21;48.57;101858.16;4954183;28;20257;-47
2022/04/02 11:46:53;;;;;;;3.42;1.30;;;;;;;4.26;47.36;101856.41;4954051;28;20571;-47
2022/04/02 11:49:34;;;;;;;2.08;1.23;;;;;;;3.80;48.82;101859.69;4953676;28;20665;-46
2022/04/02 11:52:00;;;;;;;1.17;1.08;;;;;;;4.27;48.80;101851.13;4953792;28;20295;-47